sensor_id;sensor_type;location;lat;lon;timestamp;P1;durP1;ratioP1;P2;durP2;ratioP2
52180;SDS011;38158;53.338;6.514;2023-10-19T00:00:36;15.32;;;12.00;;
52180;SDS011;38158;53.338;6.514;2023-10-19T00:03:06;17.15;;;11.45;;
52180;SDS011;38158;53.338;6.514;2023-10-19T00:05:35;15.67;;;12.10;;
52180;SDS011;38158;53.338;6.514;2023-10-19T00:08:01;18.75;;;13.05;;
52180;SDS011;38158;53.338;6.514;2023-10-19T00:10:41;17.17;;;12.77;;
52180;SDS011;38158;53.338;6.514;2023-10-19T00:13:08;18.00;;;12.77;;
52180;SDS011;38158;53.338;6.514;2023-10-19T00:15:37;18.60;;;14.18;;
52180;SDS011;38158;53.338;6.514;2023-10-19T00:18:14;16.35;;;12.68;;
52180;SDS011;38158;53.338;6.514;2023-10-19T00:20:45;16.52;;;13.25;;
52180;SDS011;38158;53.338;6.514;2023-10-19T00:23:17;16.63;;;12.57;;
52180;SDS011;38158;53.338;6.514;2023-10-19T00:26:00;18.38;;;13.35;;
52180;SDS011;38158;53.338;6.514;2023-10-19T00:28:34;15.15;;;13.02;;
52180;SDS011;38158;53.338;6.514;2023-10-19T00:31:04;17.77;;;13.40;;
52180;SDS011;38158;53.338;6.514;2023-10-19T00:33:33;18.05;;;14.18;;
52180;SDS011;38158;53.338;6.514;2023-10-19T00:36:04;19.67;;;13.82;;
52180;SDS011;38158;53.338;6.514;2023-10-19T00:38:36;17.70;;;13.23;;
52180;SDS011;38158;53.338;6.514;2023-10-19T00:41:16;19.35;;;14.15;;
52180;SDS011;38158;53.338;6.514;2023-10-19T00:43:47;21.65;;;14.63;;
52180;SDS011;38158;53.338;6.514;2023-10-19T00:46:23;20.52;;;13.65;;
52180;SDS011;38158;53.338;6.514;2023-10-19T00:48:57;20.95;;;14.38;;
52180;SDS011;38158;53.338;6.514;2023-10-19T00:51:29;21.33;;;14.57;;
52180;SDS011;38158;53.338;6.514;2023-10-19T00:54:16;17.55;;;13.80;;
52180;SDS011;38158;53.338;6.514;2023-10-19T00:56:51;18.40;;;13.98;;
52180;SDS011;38158;53.338;6.514;2023-10-19T00:59:21;20.70;;;14.23;;
52180;SDS011;38158;53.338;6.514;2023-10-19T01:01:47;18.15;;;13.77;;
52180;SDS011;38158;53.338;6.514;2023-10-19T01:04:19;18.80;;;14.40;;
52180;SDS011;38158;53.338;6.514;2023-10-19T01:06:48;18.60;;;14.35;;
52180;SDS011;38158;53.338;6.514;2023-10-19T01:09:27;19.85;;;14.30;;
52180;SDS011;38158;53.338;6.514;2023-10-19T01:11:53;19.00;;;14.27;;
52180;SDS011;38158;53.338;6.514;2023-10-19T01:14:19;21.40;;;16.10;;
52180;SDS011;38158;53.338;6.514;2023-10-19T01:16:47;22.88;;;16.13;;
52180;SDS011;38158;53.338;6.514;2023-10-19T01:19:15;25.63;;;17.10;;
52180;SDS011;38158;53.338;6.514;2023-10-19T01:21:43;27.90;;;19.05;;
52180;SDS011;38158;53.338;6.514;2023-10-19T01:24:17;30.13;;;20.15;;
52180;SDS011;38158;53.338;6.514;2023-10-19T01:26:46;29.60;;;21.10;;
52180;SDS011;38158;53.338;6.514;2023-10-19T01:29:12;28.52;;;19.65;;
52180;SDS011;38158;53.338;6.514;2023-10-19T01:31:41;28.00;;;19.65;;
52180;SDS011;38158;53.338;6.514;2023-10-19T01:34:20;30.50;;;20.85;;
52180;SDS011;38158;53.338;6.514;2023-10-19T01:36:47;28.08;;;19.17;;
52180;SDS011;38158;53.338;6.514;2023-10-19T01:39:15;23.48;;;18.08;;
52180;SDS011;38158;53.338;6.514;2023-10-19T01:41:43;24.50;;;18.00;;
52180;SDS011;38158;53.338;6.514;2023-10-19T01:44:10;20.58;;;16.58;;
52180;SDS011;38158;53.338;6.514;2023-10-19T01:46:38;20.23;;;15.43;;
52180;SDS011;38158;53.338;6.514;2023-10-19T01:49:05;19.73;;;16.47;;
52180;SDS011;38158;53.338;6.514;2023-10-19T01:51:33;21.17;;;16.15;;
52180;SDS011;38158;53.338;6.514;2023-10-19T01:54:08;19.33;;;15.85;;
52180;SDS011;38158;53.338;6.514;2023-10-19T01:56:34;21.93;;;16.00;;
52180;SDS011;38158;53.338;6.514;2023-10-19T01:59:01;17.90;;;14.20;;
52180;SDS011;38158;53.338;6.514;2023-10-19T02:01:29;19.02;;;15.15;;
52180;SDS011;38158;53.338;6.514;2023-10-19T02:06:24;17.13;;;13.48;;
52180;SDS011;38158;53.338;6.514;2023-10-19T02:08:56;21.20;;;15.90;;
52180;SDS011;38158;53.338;6.514;2023-10-19T02:11:50;19.17;;;15.57;;
52180;SDS011;38158;53.338;6.514;2023-10-19T02:14:18;17.73;;;14.65;;
52180;SDS011;38158;53.338;6.514;2023-10-19T02:16:45;19.15;;;15.65;;
52180;SDS011;38158;53.338;6.514;2023-10-19T02:19:16;18.65;;;14.75;;
52180;SDS011;38158;53.338;6.514;2023-10-19T02:21:43;19.27;;;15.75;;
52180;SDS011;38158;53.338;6.514;2023-10-19T02:24:13;19.48;;;14.40;;
52180;SDS011;38158;53.338;6.514;2023-10-19T02:26:39;19.33;;;15.57;;
52180;SDS011;38158;53.338;6.514;2023-10-19T02:29:06;17.58;;;14.40;;
52180;SDS011;38158;53.338;6.514;2023-10-19T02:31:36;16.20;;;12.77;;
52180;SDS011;38158;53.338;6.514;2023-10-19T02:34:05;16.92;;;13.88;;
52180;SDS011;38158;53.338;6.514;2023-10-19T02:36:35;18.73;;;14.38;;
52180;SDS011;38158;53.338;6.514;2023-10-19T02:39:06;17.75;;;14.95;;
52180;SDS011;38158;53.338;6.514;2023-10-19T02:41:33;15.35;;;13.15;;
52180;SDS011;38158;53.338;6.514;2023-10-19T02:44:03;16.77;;;13.38;;
52180;SDS011;38158;53.338;6.514;2023-10-19T02:46:29;15.82;;;12.80;;
52180;SDS011;38158;53.338;6.514;2023-10-19T02:49:00;15.57;;;13.45;;
52180;SDS011;38158;53.338;6.514;2023-10-19T02:51:29;16.48;;;14.48;;
52180;SDS011;38158;53.338;6.514;2023-10-19T02:53:58;16.02;;;12.65;;
52180;SDS011;38158;53.338;6.514;2023-10-19T02:56:30;16.50;;;13.90;;
52180;SDS011;38158;53.338;6.514;2023-10-19T02:58:55;16.50;;;13.98;;
52180;SDS011;38158;53.338;6.514;2023-10-19T03:01:27;17.17;;;13.63;;
52180;SDS011;38158;53.338;6.514;2023-10-19T03:03:58;16.05;;;12.73;;
52180;SDS011;38158;53.338;6.514;2023-10-19T03:06:25;15.75;;;12.45;;
52180;SDS011;38158;53.338;6.514;2023-10-19T03:08:58;14.27;;;12.57;;
52180;SDS011;38158;53.338;6.514;2023-10-19T03:11:29;16.65;;;13.02;;
52180;SDS011;38158;53.338;6.514;2023-10-19T03:13:57;15.00;;;12.20;;
52180;SDS011;38158;53.338;6.514;2023-10-19T03:16:23;16.15;;;12.93;;
52180;SDS011;38158;53.338;6.514;2023-10-19T03:18:50;13.50;;;11.73;;
52180;SDS011;38158;53.338;6.514;2023-10-19T03:21:16;13.52;;;11.52;;
52180;SDS011;38158;53.338;6.514;2023-10-19T03:23:42;14.50;;;11.90;;
52180;SDS011;38158;53.338;6.514;2023-10-19T03:26:08;13.27;;;10.70;;
52180;SDS011;38158;53.338;6.514;2023-10-19T03:28:55;13.98;;;11.90;;
52180;SDS011;38158;53.338;6.514;2023-10-19T03:31:26;15.32;;;12.50;;
52180;SDS011;38158;53.338;6.514;2023-10-19T03:33:52;13.82;;;11.50;;
52180;SDS011;38158;53.338;6.514;2023-10-19T03:36:24;12.93;;;10.88;;
52180;SDS011;38158;53.338;6.514;2023-10-19T03:38:52;12.57;;;10.90;;
52180;SDS011;38158;53.338;6.514;2023-10-19T03:43:51;11.95;;;9.30;;
52180;SDS011;38158;53.338;6.514;2023-10-19T03:46:19;12.82;;;11.20;;
52180;SDS011;38158;53.338;6.514;2023-10-19T03:48:56;12.82;;;10.45;;
52180;SDS011;38158;53.338;6.514;2023-10-19T03:51:38;13.75;;;10.50;;
52180;SDS011;38158;53.338;6.514;2023-10-19T03:54:08;12.05;;;9.70;;
52180;SDS011;38158;53.338;6.514;2023-10-19T03:56:49;11.52;;;9.60;;
52180;SDS011;38158;53.338;6.514;2023-10-19T03:59:16;10.48;;;8.77;;
52180;SDS011;38158;53.338;6.514;2023-10-19T04:01:42;9.85;;;8.85;;
52180;SDS011;38158;53.338;6.514;2023-10-19T04:04:11;11.38;;;9.13;;
52180;SDS011;38158;53.338;6.514;2023-10-19T04:06:39;10.65;;;8.82;;
52180;SDS011;38158;53.338;6.514;2023-10-19T04:09:19;9.02;;;7.57;;
52180;SDS011;38158;53.338;6.514;2023-10-19T04:11:45;9.73;;;8.02;;
52180;SDS011;38158;53.338;6.514;2023-10-19T04:14:16;9.30;;;7.97;;
52180;SDS011;38158;53.338;6.514;2023-10-19T04:16:42;9.45;;;7.47;;
52180;SDS011;38158;53.338;6.514;2023-10-19T04:19:09;10.02;;;7.45;;
52180;SDS011;38158;53.338;6.514;2023-10-19T04:21:35;9.57;;;7.70;;
52180;SDS011;38158;53.338;6.514;2023-10-19T04:24:07;10.00;;;7.65;;
52180;SDS011;38158;53.338;6.514;2023-10-19T04:26:34;10.00;;;7.38;;
52180;SDS011;38158;53.338;6.514;2023-10-19T04:29:06;9.50;;;7.30;;
52180;SDS011;38158;53.338;6.514;2023-10-19T04:31:39;9.45;;;7.68;;
52180;SDS011;38158;53.338;6.514;2023-10-19T04:34:25;10.10;;;7.97;;
52180;SDS011;38158;53.338;6.514;2023-10-19T04:36:51;10.35;;;8.25;;
52180;SDS011;38158;53.338;6.514;2023-10-19T04:39:17;8.63;;;7.30;;
52180;SDS011;38158;53.338;6.514;2023-10-19T04:41:46;9.35;;;7.53;;
52180;SDS011;38158;53.338;6.514;2023-10-19T04:44:13;9.70;;;7.32;;
52180;SDS011;38158;53.338;6.514;2023-10-19T04:46:40;9.40;;;7.18;;
52180;SDS011;38158;53.338;6.514;2023-10-19T04:49:06;8.73;;;6.60;;
52180;SDS011;38158;53.338;6.514;2023-10-19T04:51:33;8.50;;;6.63;;
52180;SDS011;38158;53.338;6.514;2023-10-19T04:54:01;9.05;;;7.40;;
52180;SDS011;38158;53.338;6.514;2023-10-19T04:56:27;8.27;;;6.60;;
52180;SDS011;38158;53.338;6.514;2023-10-19T04:58:53;6.78;;;5.40;;
52180;SDS011;38158;53.338;6.514;2023-10-19T05:01:18;6.88;;;5.70;;
52180;SDS011;38158;53.338;6.514;2023-10-19T05:03:44;6.93;;;5.53;;
52180;SDS011;38158;53.338;6.514;2023-10-19T05:06:10;7.20;;;5.65;;
52180;SDS011;38158;53.338;6.514;2023-10-19T05:11:02;7.50;;;5.57;;
52180;SDS011;38158;53.338;6.514;2023-10-19T05:13:29;6.30;;;5.07;;
52180;SDS011;38158;53.338;6.514;2023-10-19T05:15:56;7.65;;;6.03;;
52180;SDS011;38158;53.338;6.514;2023-10-19T05:18:24;6.72;;;5.18;;
52180;SDS011;38158;53.338;6.514;2023-10-19T05:20:51;5.90;;;4.75;;
52180;SDS011;38158;53.338;6.514;2023-10-19T05:23:21;6.78;;;5.45;;
52180;SDS011;38158;53.338;6.514;2023-10-19T05:26:00;6.63;;;5.00;;
52180;SDS011;38158;53.338;6.514;2023-10-19T05:28:27;6.43;;;5.07;;
52180;SDS011;38158;53.338;6.514;2023-10-19T05:30:53;5.75;;;4.30;;
52180;SDS011;38158;53.338;6.514;2023-10-19T05:33:23;6.60;;;4.95;;
52180;SDS011;38158;53.338;6.514;2023-10-19T05:35:49;5.30;;;4.20;;
52180;SDS011;38158;53.338;6.514;2023-10-19T05:38:16;6.00;;;4.47;;
52180;SDS011;38158;53.338;6.514;2023-10-19T05:40:42;5.83;;;4.70;;
52180;SDS011;38158;53.338;6.514;2023-10-19T05:43:08;5.03;;;3.95;;
52180;SDS011;38158;53.338;6.514;2023-10-19T05:45:34;5.80;;;4.40;;
52180;SDS011;38158;53.338;6.514;2023-10-19T05:48:01;5.88;;;4.45;;
52180;SDS011;38158;53.338;6.514;2023-10-19T05:52:55;5.20;;;3.78;;
52180;SDS011;38158;53.338;6.514;2023-10-19T05:55:21;5.65;;;3.83;;
52180;SDS011;38158;53.338;6.514;2023-10-19T05:57:47;6.15;;;3.95;;
52180;SDS011;38158;53.338;6.514;2023-10-19T06:00:13;5.30;;;3.85;;
52180;SDS011;38158;53.338;6.514;2023-10-19T06:02:44;5.13;;;3.80;;
52180;SDS011;38158;53.338;6.514;2023-10-19T06:05:10;5.53;;;3.85;;
52180;SDS011;38158;53.338;6.514;2023-10-19T06:07:41;4.63;;;2.97;;
52180;SDS011;38158;53.338;6.514;2023-10-19T06:10:07;4.90;;;3.30;;
52180;SDS011;38158;53.338;6.514;2023-10-19T06:12:40;4.75;;;3.08;;
52180;SDS011;38158;53.338;6.514;2023-10-19T06:15:16;4.90;;;3.15;;
52180;SDS011;38158;53.338;6.514;2023-10-19T06:17:49;4.38;;;2.80;;
52180;SDS011;38158;53.338;6.514;2023-10-19T06:20:15;3.57;;;2.60;;
52180;SDS011;38158;53.338;6.514;2023-10-19T06:22:51;4.00;;;2.83;;
52180;SDS011;38158;53.338;6.514;2023-10-19T06:25:22;3.80;;;2.75;;
52180;SDS011;38158;53.338;6.514;2023-10-19T06:30:15;4.60;;;2.90;;
52180;SDS011;38158;53.338;6.514;2023-10-19T06:32:50;4.38;;;2.70;;
52180;SDS011;38158;53.338;6.514;2023-10-19T06:35:20;4.00;;;2.72;;
52180;SDS011;38158;53.338;6.514;2023-10-19T06:37:47;4.60;;;3.17;;
52180;SDS011;38158;53.338;6.514;2023-10-19T06:40:13;4.07;;;2.83;;
52180;SDS011;38158;53.338;6.514;2023-10-19T06:42:42;4.47;;;2.80;;
52180;SDS011;38158;53.338;6.514;2023-10-19T06:45:11;3.50;;;2.47;;
52180;SDS011;38158;53.338;6.514;2023-10-19T06:47:44;3.80;;;2.90;;
52180;SDS011;38158;53.338;6.514;2023-10-19T06:50:14;3.97;;;2.60;;
52180;SDS011;38158;53.338;6.514;2023-10-19T06:52:41;2.95;;;2.42;;
52180;SDS011;38158;53.338;6.514;2023-10-19T06:55:09;4.28;;;2.83;;
52180;SDS011;38158;53.338;6.514;2023-10-19T06:57:42;3.50;;;2.47;;
52180;SDS011;38158;53.338;6.514;2023-10-19T07:00:14;4.03;;;3.28;;
52180;SDS011;38158;53.338;6.514;2023-10-19T07:02:44;4.13;;;2.90;;
52180;SDS011;38158;53.338;6.514;2023-10-19T07:05:11;3.33;;;2.47;;
52180;SDS011;38158;53.338;6.514;2023-10-19T07:07:42;3.95;;;2.90;;
52180;SDS011;38158;53.338;6.514;2023-10-19T07:10:08;4.25;;;2.90;;
52180;SDS011;38158;53.338;6.514;2023-10-19T07:12:39;3.83;;;2.55;;
52180;SDS011;38158;53.338;6.514;2023-10-19T07:15:09;5.68;;;2.80;;
52180;SDS011;38158;53.338;6.514;2023-10-19T07:17:44;3.83;;;2.92;;
52180;SDS011;38158;53.338;6.514;2023-10-19T07:20:14;3.97;;;3.10;;
52180;SDS011;38158;53.338;6.514;2023-10-19T07:23:01;4.28;;;2.95;;
52180;SDS011;38158;53.338;6.514;2023-10-19T07:25:33;4.32;;;2.92;;
52180;SDS011;38158;53.338;6.514;2023-10-19T07:28:08;3.95;;;2.65;;
52180;SDS011;38158;53.338;6.514;2023-10-19T07:30:34;3.30;;;2.50;;
52180;SDS011;38158;53.338;6.514;2023-10-19T07:33:00;4.07;;;2.75;;
52180;SDS011;38158;53.338;6.514;2023-10-19T07:35:29;4.13;;;2.78;;
52180;SDS011;38158;53.338;6.514;2023-10-19T07:38:02;3.83;;;2.80;;
52180;SDS011;38158;53.338;6.514;2023-10-19T07:40:29;3.97;;;2.78;;
52180;SDS011;38158;53.338;6.514;2023-10-19T07:42:55;3.30;;;2.60;;
52180;SDS011;38158;53.338;6.514;2023-10-19T07:45:21;3.30;;;2.28;;
52180;SDS011;38158;53.338;6.514;2023-10-19T07:47:47;3.20;;;2.50;;
52180;SDS011;38158;53.338;6.514;2023-10-19T07:50:13;3.72;;;2.70;;
52180;SDS011;38158;53.338;6.514;2023-10-19T07:52:43;3.88;;;2.83;;
52180;SDS011;38158;53.338;6.514;2023-10-19T07:55:09;4.38;;;2.47;;
52180;SDS011;38158;53.338;6.514;2023-10-19T07:57:35;3.38;;;2.47;;
52180;SDS011;38158;53.338;6.514;2023-10-19T08:00:01;3.92;;;3.00;;
52180;SDS011;38158;53.338;6.514;2023-10-19T08:02:28;4.20;;;2.88;;
52180;SDS011;38158;53.338;6.514;2023-10-19T08:04:55;3.80;;;2.37;;
52180;SDS011;38158;53.338;6.514;2023-10-19T08:07:21;2.80;;;2.00;;
52180;SDS011;38158;53.338;6.514;2023-10-19T08:09:47;3.55;;;2.33;;
52180;SDS011;38158;53.338;6.514;2023-10-19T08:12:13;3.08;;;1.95;;
52180;SDS011;38158;53.338;6.514;2023-10-19T08:14:39;3.80;;;2.72;;
52180;SDS011;38158;53.338;6.514;2023-10-19T08:17:05;3.45;;;2.38;;
52180;SDS011;38158;53.338;6.514;2023-10-19T08:19:34;3.85;;;2.35;;
52180;SDS011;38158;53.338;6.514;2023-10-19T08:22:00;3.95;;;2.55;;
52180;SDS011;38158;53.338;6.514;2023-10-19T08:24:26;3.72;;;2.80;;
52180;SDS011;38158;53.338;6.514;2023-10-19T08:26:55;3.88;;;2.60;;
52180;SDS011;38158;53.338;6.514;2023-10-19T08:29:21;3.83;;;2.63;;
52180;SDS011;38158;53.338;6.514;2023-10-19T08:31:47;3.85;;;2.40;;
52180;SDS011;38158;53.338;6.514;2023-10-19T08:34:13;3.72;;;2.83;;
52180;SDS011;38158;53.338;6.514;2023-10-19T08:36:39;3.72;;;2.90;;
52180;SDS011;38158;53.338;6.514;2023-10-19T08:39:06;5.45;;;2.90;;
52180;SDS011;38158;53.338;6.514;2023-10-19T08:41:35;3.22;;;2.72;;
52180;SDS011;38158;53.338;6.514;2023-10-19T08:44:06;4.07;;;3.13;;
52180;SDS011;38158;53.338;6.514;2023-10-19T08:46:42;4.40;;;3.30;;
52180;SDS011;38158;53.338;6.514;2023-10-19T08:49:11;3.90;;;3.00;;
52180;SDS011;38158;53.338;6.514;2023-10-19T08:51:38;3.80;;;3.00;;
52180;SDS011;38158;53.338;6.514;2023-10-19T08:54:05;3.88;;;3.28;;
52180;SDS011;38158;53.338;6.514;2023-10-19T08:56:31;4.32;;;3.58;;
52180;SDS011;38158;53.338;6.514;2023-10-19T08:58:59;4.70;;;3.70;;
52180;SDS011;38158;53.338;6.514;2023-10-19T09:01:27;3.97;;;3.35;;
52180;SDS011;38158;53.338;6.514;2023-10-19T09:03:58;4.38;;;3.40;;
52180;SDS011;38158;53.338;6.514;2023-10-19T09:06:24;4.88;;;4.07;;
52180;SDS011;38158;53.338;6.514;2023-10-19T09:08:50;4.35;;;3.60;;
52180;SDS011;38158;53.338;6.514;2023-10-19T09:11:16;4.43;;;3.85;;
52180;SDS011;38158;53.338;6.514;2023-10-19T09:13:49;4.72;;;4.13;;
52180;SDS011;38158;53.338;6.514;2023-10-19T09:16:17;5.00;;;4.05;;
52180;SDS011;38158;53.338;6.514;2023-10-19T09:18:46;5.05;;;4.25;;
52180;SDS011;38158;53.338;6.514;2023-10-19T09:21:16;5.68;;;4.45;;
52180;SDS011;38158;53.338;6.514;2023-10-19T09:23:49;4.57;;;3.90;;
52180;SDS011;38158;53.338;6.514;2023-10-19T09:26:21;7.40;;;3.97;;
52180;SDS011;38158;53.338;6.514;2023-10-19T09:28:48;7.50;;;4.18;;
52180;SDS011;38158;53.338;6.514;2023-10-19T09:31:15;5.30;;;4.28;;
52180;SDS011;38158;53.338;6.514;2023-10-19T09:33:45;5.32;;;4.53;;
52180;SDS011;38158;53.338;6.514;2023-10-19T09:36:13;4.78;;;4.13;;
52180;SDS011;38158;53.338;6.514;2023-10-19T09:38:39;7.20;;;4.95;;
52180;SDS011;38158;53.338;6.514;2023-10-19T09:41:14;6.28;;;5.15;;
52180;SDS011;38158;53.338;6.514;2023-10-19T09:43:46;5.85;;;4.85;;
52180;SDS011;38158;53.338;6.514;2023-10-19T09:46:20;6.63;;;4.70;;
52180;SDS011;38158;53.338;6.514;2023-10-19T09:48:48;5.22;;;4.65;;
52180;SDS011;38158;53.338;6.514;2023-10-19T09:51:14;5.97;;;5.37;;
52180;SDS011;38158;53.338;6.514;2023-10-19T09:56:10;6.47;;;5.68;;
52180;SDS011;38158;53.338;6.514;2023-10-19T09:58:46;6.40;;;5.75;;
52180;SDS011;38158;53.338;6.514;2023-10-19T10:01:15;6.63;;;6.03;;
52180;SDS011;38158;53.338;6.514;2023-10-19T10:06:12;6.32;;;4.95;;
52180;SDS011;38158;53.338;6.514;2023-10-19T10:08:40;6.00;;;5.22;;
52180;SDS011;38158;53.338;6.514;2023-10-19T10:11:15;7.88;;;6.35;;
52180;SDS011;38158;53.338;6.514;2023-10-19T10:16:15;5.88;;;5.18;;
52180;SDS011;38158;53.338;6.514;2023-10-19T10:21:17;6.90;;;5.57;;
52180;SDS011;38158;53.338;6.514;2023-10-19T10:23:52;7.22;;;4.95;;
52180;SDS011;38158;53.338;6.514;2023-10-19T10:26:20;7.13;;;3.88;;
52180;SDS011;38158;53.338;6.514;2023-10-19T10:31:45;4.60;;;3.67;;
52180;SDS011;38158;53.338;6.514;2023-10-19T10:34:41;5.55;;;3.60;;
52180;SDS011;38158;53.338;6.514;2023-10-19T10:37:04;5.55;;;3.40;;
52180;SDS011;38158;53.338;6.514;2023-10-19T10:39:32;4.47;;;3.35;;
52180;SDS011;38158;53.338;6.514;2023-10-19T10:42:00;4.13;;;3.20;;
52180;SDS011;38158;53.338;6.514;2023-10-19T10:47:08;4.22;;;3.17;;
52180;SDS011;38158;53.338;6.514;2023-10-19T10:52:29;4.28;;;2.92;;
52180;SDS011;38158;53.338;6.514;2023-10-19T10:55:12;4.18;;;2.72;;
52180;SDS011;38158;53.338;6.514;2023-10-19T10:57:40;4.60;;;2.75;;
52180;SDS011;38158;53.338;6.514;2023-10-19T11:00:07;4.07;;;2.50;;
52180;SDS011;38158;53.338;6.514;2023-10-19T11:02:35;3.97;;;2.60;;
52180;SDS011;38158;53.338;6.514;2023-10-19T11:05:01;4.33;;;2.63;;
52180;SDS011;38158;53.338;6.514;2023-10-19T11:07:28;4.60;;;3.00;;
52180;SDS011;38158;53.338;6.514;2023-10-19T11:09:54;3.92;;;2.88;;
52180;SDS011;38158;53.338;6.514;2023-10-19T11:12:20;5.07;;;2.90;;
52180;SDS011;38158;53.338;6.514;2023-10-19T11:14:52;5.35;;;3.13;;
52180;SDS011;38158;53.338;6.514;2023-10-19T11:17:18;6.35;;;3.58;;
52180;SDS011;38158;53.338;6.514;2023-10-19T11:19:44;5.22;;;4.05;;
52180;SDS011;38158;53.338;6.514;2023-10-19T11:22:10;7.95;;;5.75;;
52180;SDS011;38158;53.338;6.514;2023-10-19T11:24:36;9.23;;;5.97;;
52180;SDS011;38158;53.338;6.514;2023-10-19T11:27:05;8.48;;;6.75;;
52180;SDS011;38158;53.338;6.514;2023-10-19T11:29:33;7.70;;;6.72;;
52180;SDS011;38158;53.338;6.514;2023-10-19T11:31:59;12.10;;;6.90;;
52180;SDS011;38158;53.338;6.514;2023-10-19T11:34:26;7.82;;;6.15;;
52180;SDS011;38158;53.338;6.514;2023-10-19T11:36:54;9.23;;;6.32;;
52180;SDS011;38158;53.338;6.514;2023-10-19T11:39:25;10.32;;;6.97;;
52180;SDS011;38158;53.338;6.514;2023-10-19T11:41:51;9.15;;;7.03;;
52180;SDS011;38158;53.338;6.514;2023-10-19T11:44:18;8.98;;;6.85;;
52180;SDS011;38158;53.338;6.514;2023-10-19T11:46:44;9.63;;;6.47;;
52180;SDS011;38158;53.338;6.514;2023-10-19T11:49:10;6.78;;;4.53;;
52180;SDS011;38158;53.338;6.514;2023-10-19T11:51:36;9.70;;;5.20;;
52180;SDS011;38158;53.338;6.514;2023-10-19T11:54:04;6.60;;;4.93;;
52180;SDS011;38158;53.338;6.514;2023-10-19T11:56:31;7.88;;;4.88;;
52180;SDS011;38158;53.338;6.514;2023-10-19T11:58:57;6.55;;;4.88;;
52180;SDS011;38158;53.338;6.514;2023-10-19T12:01:22;6.43;;;4.82;;
52180;SDS011;38158;53.338;6.514;2023-10-19T12:03:50;7.10;;;5.22;;
52180;SDS011;38158;53.338;6.514;2023-10-19T12:06:16;5.82;;;4.47;;
52180;SDS011;38158;53.338;6.514;2023-10-19T12:08:44;8.35;;;5.40;;
52180;SDS011;38158;53.338;6.514;2023-10-19T12:11:10;7.47;;;4.85;;
52180;SDS011;38158;53.338;6.514;2023-10-19T12:13:43;9.38;;;5.35;;
52180;SDS011;38158;53.338;6.514;2023-10-19T12:16:13;7.78;;;4.68;;
52180;SDS011;38158;53.338;6.514;2023-10-19T12:18:43;7.97;;;5.22;;
52180;SDS011;38158;53.338;6.514;2023-10-19T12:21:10;7.35;;;4.50;;
52180;SDS011;38158;53.338;6.514;2023-10-19T12:23:40;8.05;;;5.07;;
52180;SDS011;38158;53.338;6.514;2023-10-19T12:28:40;8.75;;;4.85;;
52180;SDS011;38158;53.338;6.514;2023-10-19T12:31:07;6.10;;;3.65;;
52180;SDS011;38158;53.338;6.514;2023-10-19T12:33:38;7.07;;;4.78;;
52180;SDS011;38158;53.338;6.514;2023-10-19T12:36:07;8.38;;;4.93;;
52180;SDS011;38158;53.338;6.514;2023-10-19T12:38:48;7.03;;;4.18;;
52180;SDS011;38158;53.338;6.514;2023-10-19T12:41:14;7.38;;;4.45;;
52180;SDS011;38158;53.338;6.514;2023-10-19T12:43:40;6.68;;;4.90;;
52180;SDS011;38158;53.338;6.514;2023-10-19T12:46:06;6.80;;;5.13;;
52180;SDS011;38158;53.338;6.514;2023-10-19T12:48:34;7.35;;;4.88;;
52180;SDS011;38158;53.338;6.514;2023-10-19T12:51:04;7.32;;;4.78;;
52180;SDS011;38158;53.338;6.514;2023-10-19T12:53:32;8.70;;;5.20;;
52180;SDS011;38158;53.338;6.514;2023-10-19T12:55:58;8.07;;;5.50;;
52180;SDS011;38158;53.338;6.514;2023-10-19T12:58:25;7.75;;;4.93;;
52180;SDS011;38158;53.338;6.514;2023-10-19T13:00:52;8.15;;;5.88;;
52180;SDS011;38158;53.338;6.514;2023-10-19T13:05:47;7.38;;;4.88;;
52180;SDS011;38158;53.338;6.514;2023-10-19T13:08:15;9.98;;;4.97;;
52180;SDS011;38158;53.338;6.514;2023-10-19T13:10:44;8.32;;;5.63;;
52180;SDS011;38158;53.338;6.514;2023-10-19T13:13:13;7.85;;;4.97;;
52180;SDS011;38158;53.338;6.514;2023-10-19T13:15:40;7.13;;;4.75;;
52180;SDS011;38158;53.338;6.514;2023-10-19T13:18:11;8.38;;;5.35;;
52180;SDS011;38158;53.338;6.514;2023-10-19T13:21:07;8.85;;;5.43;;
52180;SDS011;38158;53.338;6.514;2023-10-19T13:23:41;7.78;;;5.13;;
52180;SDS011;38158;53.338;6.514;2023-10-19T13:26:09;5.68;;;4.50;;
52180;SDS011;38158;53.338;6.514;2023-10-19T13:28:41;6.50;;;4.68;;
52180;SDS011;38158;53.338;6.514;2023-10-19T13:31:07;7.53;;;3.87;;
52180;SDS011;38158;53.338;6.514;2023-10-19T13:33:38;8.18;;;4.40;;
52180;SDS011;38158;53.338;6.514;2023-10-19T13:36:06;6.13;;;3.90;;
52180;SDS011;38158;53.338;6.514;2023-10-19T13:38:32;6.50;;;4.57;;
52180;SDS011;38158;53.338;6.514;2023-10-19T13:40:58;7.00;;;3.90;;
52180;SDS011;38158;53.338;6.514;2023-10-19T13:43:24;8.10;;;4.00;;
52180;SDS011;38158;53.338;6.514;2023-10-19T13:45:50;7.05;;;4.10;;
52180;SDS011;38158;53.338;6.514;2023-10-19T13:48:18;5.10;;;3.38;;
52180;SDS011;38158;53.338;6.514;2023-10-19T13:50:46;5.68;;;3.60;;
52180;SDS011;38158;53.338;6.514;2023-10-19T13:53:17;7.03;;;3.83;;
52180;SDS011;38158;53.338;6.514;2023-10-19T13:55:44;6.97;;;3.53;;
52180;SDS011;38158;53.338;6.514;2023-10-19T13:58:10;5.47;;;3.80;;
52180;SDS011;38158;53.338;6.514;2023-10-19T14:00:37;6.13;;;3.80;;
52180;SDS011;38158;53.338;6.514;2023-10-19T14:03:08;8.15;;;4.85;;
52180;SDS011;38158;53.338;6.514;2023-10-19T14:05:38;6.28;;;3.88;;
52180;SDS011;38158;53.338;6.514;2023-10-19T14:08:05;5.57;;;3.67;;
52180;SDS011;38158;53.338;6.514;2023-10-19T14:10:32;5.97;;;3.85;;
52180;SDS011;38158;53.338;6.514;2023-10-19T14:13:01;6.22;;;3.78;;
52180;SDS011;38158;53.338;6.514;2023-10-19T14:15:27;7.20;;;3.88;;
52180;SDS011;38158;53.338;6.514;2023-10-19T14:17:55;6.15;;;4.03;;
52180;SDS011;38158;53.338;6.514;2023-10-19T14:20:23;9.07;;;4.43;;
52180;SDS011;38158;53.338;6.514;2023-10-19T14:22:49;6.05;;;3.78;;
52180;SDS011;38158;53.338;6.514;2023-10-19T14:25:16;8.50;;;3.88;;
52180;SDS011;38158;53.338;6.514;2023-10-19T14:27:45;7.95;;;4.30;;
52180;SDS011;38158;53.338;6.514;2023-10-19T14:30:16;7.57;;;4.35;;
52180;SDS011;38158;53.338;6.514;2023-10-19T14:32:44;6.97;;;3.47;;
52180;SDS011;38158;53.338;6.514;2023-10-19T14:35:14;7.47;;;3.83;;
52180;SDS011;38158;53.338;6.514;2023-10-19T14:37:42;6.70;;;3.30;;
52180;SDS011;38158;53.338;6.514;2023-10-19T14:40:14;6.10;;;3.83;;
52180;SDS011;38158;53.338;6.514;2023-10-19T14:42:45;6.18;;;3.63;;
52180;SDS011;38158;53.338;6.514;2023-10-19T14:45:12;5.90;;;3.07;;
52180;SDS011;38158;53.338;6.514;2023-10-19T14:47:41;7.82;;;3.40;;
52180;SDS011;38158;53.338;6.514;2023-10-19T14:50:17;6.47;;;3.85;;
52180;SDS011;38158;53.338;6.514;2023-10-19T14:52:44;7.38;;;3.80;;
52180;SDS011;38158;53.338;6.514;2023-10-19T14:55:12;5.93;;;3.35;;
52180;SDS011;38158;53.338;6.514;2023-10-19T14:57:42;7.55;;;4.45;;
52180;SDS011;38158;53.338;6.514;2023-10-19T15:00:10;6.25;;;4.40;;
52180;SDS011;38158;53.338;6.514;2023-10-19T15:02:44;8.82;;;4.18;;
52180;SDS011;38158;53.338;6.514;2023-10-19T15:05:13;7.72;;;3.97;;
52180;SDS011;38158;53.338;6.514;2023-10-19T15:07:45;7.55;;;4.25;;
52180;SDS011;38158;53.338;6.514;2023-10-19T15:10:12;7.82;;;4.00;;
52180;SDS011;38158;53.338;6.514;2023-10-19T15:12:41;7.03;;;4.05;;
52180;SDS011;38158;53.338;6.514;2023-10-19T15:15:10;7.00;;;4.30;;
52180;SDS011;38158;53.338;6.514;2023-10-19T15:17:45;7.32;;;4.25;;
52180;SDS011;38158;53.338;6.514;2023-10-19T15:20:13;7.30;;;4.03;;
52180;SDS011;38158;53.338;6.514;2023-10-19T15:22:42;7.80;;;4.72;;
52180;SDS011;38158;53.338;6.514;2023-10-19T15:25:09;8.32;;;4.30;;
52180;SDS011;38158;53.338;6.514;2023-10-19T15:27:42;11.27;;;4.95;;